Time;durP1;ratioP1;P1;durP2;ratioP2;P2;SDS_P1;SDS_P2;PMS_P1;PMS_P2;Temp;Humidity;BMP_temperature;BMP_pressure;BME280_temperature;BME280_humidity;BME280_pressure;Samples;Min_cycle;Max_cycle;Signal;HPM_P1;HPM_P2
2023/01/03 00:01:11;;;;;;;;;;;;;;;13.07;75.38;102135.38;5032037;28;19920;-81
2023/01/03 00:03:56;;;;;;;;;;;;;;;13.06;75.57;102133.75;5037633;28;20311;-83
2023/01/03 00:06:49;;;;;;;;;;;;;;;13.07;75.52;102140.84;5026574;28;20300;-82
2023/01/03 00:09:34;;;;;;;;;;;;;;;13.04;75.51;102135.97;5037226;28;19924;-83
2023/01/03 00:12:24;;;;;;;;;;;;;;;13.05;75.56;102129.41;5030156;28;19917;-82
2023/01/03 00:15:09;;;;;;;;;;;;;;;13.05;75.56;102132.16;5036148;28;19917;-82
2023/01/03 00:17:55;;;;;;;;;;;;;;;13.03;75.45;102124.25;5033131;28;19917;-82
2023/01/03 00:20:39;;;;;;;;;;;;;;;13.04;75.33;102133.25;5039139;28;19925;-82
2023/01/03 00:23:23;;;;;;;;;;;;;;;13.03;75.49;102139.81;5031292;28;19917;-82
2023/01/03 00:26:12;;;;;;;;;;;;;;;13.03;75.38;102132.44;5032119;28;19917;-81
2023/01/03 00:28:56;;;;;;;;;;;;;;;13.03;75.14;102121.50;5032098;28;19921;-82
2023/01/03 00:31:41;;;;;;;;;;;;;;;13.03;75.41;102129.69;5046294;28;19918;-82
2023/01/03 00:34:25;;;;;;;;;;;;;;;13.03;75.43;102137.91;5014623;28;19918;-82
2023/01/03 00:37:10;;;;;;;;;;;;;;;13.05;75.45;102127.50;5012338;28;20388;-82
2023/01/03 00:39:55;;;;;;;;;;;;;;;13.05;75.48;102123.94;5016122;28;19917;-82
2023/01/03 00:45:44;;;;;;;;;;;;;;;13.04;75.58;102114.13;5031478;28;19921;-82
2023/01/03 00:48:31;;;;;;;;;;;;;;;13.05;75.50;102123.94;5031728;28;19917;-82
2023/01/03 00:51:17;;;;;;;;;;;;;;;13.04;75.50;102119.59;5035712;28;19917;-83
2023/01/03 00:54:03;;;;;;;;;;;;;;;13.06;75.46;102125.56;5026502;28;19918;-82
2023/01/03 00:56:48;;;;;;;;;;;;;;;13.03;75.55;102117.97;5035246;28;19917;-83
2023/01/03 00:59:32;;;;;;;;;;;;;;;13.03;75.56;102123.44;5016123;28;19917;-82
2023/01/03 01:02:19;;;;;;;;;;;;;;;13.03;75.62;102124.25;5021114;28;20308;-82
2023/01/03 01:05:03;;;;;;;;;;;;;;;13.04;75.55;102135.97;5021391;28;19929;-83
2023/01/03 01:07:48;;;;;;;;;;;;;;;13.06;75.50;102139.19;5036435;28;19917;-82
2023/01/03 01:10:32;;;;;;;;;;;;;;;13.05;75.42;102143.06;5039914;28;19917;-82
2023/01/03 01:13:17;;;;;;;;;;;;;;;13.04;75.47;102130.50;5035051;28;20303;-83
2023/01/03 01:16:06;;;;;;;;;;;;;;;13.05;75.48;102134.88;5024638;28;19917;-82
2023/01/03 01:18:53;;;;;;;;;;;;;;;13.04;75.48;102130.50;5020073;28;19917;-82
2023/01/03 01:21:38;;;;;;;;;;;;;;;13.06;75.50;102125.56;5020619;28;20304;-83
2023/01/03 01:24:23;;;;;;;;;;;;;;;13.04;75.53;102135.97;5017694;28;19922;-82
2023/01/03 01:27:07;;;;;;;;;;;;;;;13.02;75.47;102133.53;5018932;28;19922;-82
2023/01/03 01:29:52;;;;;;;;;;;;;;;13.02;75.32;102139.00;5018028;28;19943;-82
2023/01/03 01:32:36;;;;;;;;;;;;;;;13.02;75.52;102138.19;5016149;28;19921;-82
2023/01/03 01:35:21;;;;;;;;;;;;;;;13.04;75.36;102146.91;5020166;28;19917;-82
2023/01/03 01:38:05;;;;;;;;;;;;;;;13.05;75.29;102143.06;5014812;28;19917;-82
2023/01/03 01:40:49;;;;;;;;;;;;;;;13.03;75.30;102142.53;5016287;28;19917;-83
2023/01/03 01:46:37;;;;;;;;;;;;;;;13.02;75.34;102143.66;5022471;28;19917;-82
2023/01/03 01:49:24;;;;;;;;;;;;;;;13.03;75.24;102142.53;5037191;28;19917;-82
2023/01/03 01:52:10;;;;;;;;;;;;;;;13.01;75.37;102139.28;5033510;28;19917;-81
2023/01/03 01:54:55;;;;;;;;;;;;;;;13.01;75.24;102136.56;5037535;28;20384;-81
2023/01/03 01:57:40;;;;;;;;;;;;;;;13.01;75.27;102137.38;5026880;28;19917;-82
2023/01/03 02:00:24;;;;;;;;;;;;;;;13.01;75.31;102139.28;5019351;28;19917;-82
2023/01/03 02:03:09;;;;;;;;;;;;;;;13.00;75.30;102132.22;5017522;28;19918;-82
2023/01/03 02:05:55;;;;;;;;;;;;;;;12.99;75.28;102134.13;5015705;28;19922;-82
2023/01/03 02:08:40;;;;;;;;;;;;;;;13.01;75.43;102131.09;5025847;28;19917;-82
2023/01/03 02:11:30;;;;;;;;;;;;;;;12.99;75.30;102127.88;5033743;28;19917;-82
2023/01/03 02:14:14;;;;;;;;;;;;;;;13.01;75.43;102133.81;5034007;28;19917;-82
2023/01/03 02:17:05;;;;;;;;;;;;;;;13.00;75.24;102122.13;5046847;28;19917;-82
2023/01/03 02:19:50;;;;;;;;;;;;;;;12.98;75.30;102123.50;5024045;28;20304;-83
2023/01/03 02:22:53;;;;;;;;;;;;;;;13.00;75.24;102126.75;5053580;28;19917;-83
2023/01/03 02:25:56;;;;;;;;;;;;;;;12.99;75.25;102127.88;5033498;28;19921;-82
2023/01/03 02:28:52;;;;;;;;;;;;;;;13.03;75.18;102126.16;5040862;28;20388;-82
2023/01/03 02:31:49;;;;;;;;;;;;;;;13.03;74.96;102115.22;5033244;28;20330;-82
2023/01/03 02:34:38;;;;;;;;;;;;;;;13.01;74.98;102115.53;5053267;28;19917;-82
2023/01/03 02:37:48;;;;;;;;;;;;;;;13.03;74.97;102117.97;5047970;28;19921;-82
2023/01/03 02:40:58;;;;;;;;;;;;;;;13.03;75.03;102121.50;5013471;28;19917;-82
2023/01/03 02:44:01;;;;;;;;;;;;;;;13.02;75.01;102119.06;5019492;28;19918;-83
2023/01/03 02:46:49;;;;;;;;;;;;;;;13.00;75.15;102119.38;5017206;28;19917;-82
2023/01/03 02:49:33;;;;;;;;;;;;;;;13.01;75.14;102112.78;5023205;28;19918;-82
2023/01/03 02:52:20;;;;;;;;;;;;;;;13.01;75.23;102109.25;5013225;28;19918;-82
2023/01/03 02:55:09;;;;;;;;;;;;;;;13.00;75.09;102102.19;5017059;28;20320;-82
2023/01/03 02:58:11;;;;;;;;;;;;;;;13.01;75.09;102101.88;5049869;22;19926;-90
2023/01/03 03:00:58;;;;;;;;;;;;;;;13.01;75.08;102098.31;5052775;28;19921;-91
2023/01/03 03:03:44;;;;;;;;;;;;;;;13.01;75.09;102104.59;5057177;28;19901;-96
2023/01/03 03:06:28;;;;;;;;;;;;;;;12.98;75.12;102097.00;5069726;28;19917;-88
2023/01/03 03:09:13;;;;;;;;;;;;;;;12.97;75.15;102109.03;5049004;28;19925;-86
2023/01/03 03:15:04;;;;;;;;;;;;;;;12.97;75.15;102100.03;5070719;28;19905;-89
2023/01/03 03:17:50;;;;;;;;;;;;;;;12.95;75.22;102110.47;5055768;28;19917;-90
2023/01/03 03:26:44;;;;;;;;;;;;;;;12.95;75.25;102105.00;5054717;28;19921;-90
2023/01/03 03:29:28;;;;;;;;;;;;;;;12.94;75.40;102095.19;5058353;28;19917;-91
2023/01/03 03:32:13;;;;;;;;;;;;;;;12.93;75.44;102101.75;5056476;28;19905;-88
2023/01/03 03:35:02;;;;;;;;;;;;;;;12.94;75.41;102103.38;5054477;28;20388;-91
2023/01/03 03:37:49;;;;;;;;;;;;;;;12.94;75.40;102097.91;5058139;28;19917;-89
2023/01/03 03:46:50;;;;;;;;;;;;;;;12.91;75.39;102099.28;5060449;28;19921;-90
2023/01/03 03:49:38;;;;;;;;;;;;;;;12.91;75.54;102098.47;5070739;28;19917;-88
2023/01/03 03:52:25;;;;;;;;;;;;;;;12.89;75.34;102104.25;5062210;28;19917;-85
2023/01/03 03:55:18;;;;;;;;;;;;;;;12.90;75.30;102099.63;5056705;28;19905;-92
2023/01/03 03:58:08;;;;;;;;;;;;;;;12.89;75.39;102101.53;5060302;28;19901;-91
2023/01/03 04:00:54;;;;;;;;;;;;;;;12.89;75.30;102098.81;5056826;28;19917;-91
2023/01/03 04:03:39;;;;;;;;;;;;;;;12.86;75.43;102096.66;5072825;28;19917;-90
2023/01/03 04:06:39;;;;;;;;;;;;;;;12.85;75.57;102104.03;5059741;28;19921;-89
2023/01/03 04:09:25;;;;;;;;;;;;;;;12.86;75.48;102093.91;5050595;28;19917;-86
2023/01/03 04:12:10;;;;;;;;;;;;;;;12.87;75.44;102101.00;5072294;28;19918;-88
2023/01/03 04:14:54;;;;;;;;;;;;;;;12.83;75.55;102091.78;5064541;28;19917;-87
2023/01/03 04:17:39;;;;;;;;;;;;;;;12.85;75.48;102093.09;5065249;28;19917;-83
2023/01/03 04:20:24;;;;;;;;;;;;;;;12.83;75.46;102095.34;5064329;28;19917;-84
2023/01/03 04:23:08;;;;;;;;;;;;;;;12.85;75.57;102095.81;5049824;28;19921;-86
2023/01/03 04:25:53;;;;;;;;;;;;;;;12.84;75.51;102105.16;5046329;28;19921;-86
2023/01/03 04:28:37;;;;;;;;;;;;;;;12.86;75.55;102097.47;5068011;28;19917;-85
2023/01/03 04:31:22;;;;;;;;;;;;;;;12.83;75.66;102102.72;5052431;28;19921;-83
2023/01/03 04:34:06;;;;;;;;;;;;;;;12.84;75.76;102099.69;5056906;28;19917;-83
2023/01/03 04:36:51;;;;;;;;;;;;;;;12.81;75.92;102104.91;5058032;28;19913;-96
2023/01/03 04:39:36;;;;;;;;;;;;;;;12.81;75.98;102094.00;5058770;28;19909;-87
2023/01/03 04:45:23;;;;;;;;;;;;;;;12.79;76.17;102098.97;5055733;28;19921;-86
2023/01/03 04:48:08;;;;;;;;;;;;;;;12.80;76.18;102101.38;5052613;28;19920;-86
2023/01/03 04:50:57;;;;;;;;;;;;;;;12.81;76.31;102104.91;5054969;28;19917;-83
2023/01/03 04:53:42;;;;;;;;;;;;;;;12.79;76.38;102102.50;5054781;28;20388;-86
2023/01/03 04:56:29;;;;;;;;;;;;;;;12.77;76.62;102101.97;5059830;28;19917;-84
2023/01/03 04:59:13;;;;;;;;;;;;;;;12.78;76.46;102098.13;5052407;28;19921;-88
2023/01/03 05:01:57;;;;;;;;;;;;;;;12.79;76.36;102107.97;5049297;28;19917;-86
2023/01/03 05:04:42;;;;;;;;;;;;;;;12.79;76.41;102107.97;5053014;28;19929;-83
2023/01/03 05:07:27;;;;;;;;;;;;;;;12.78;76.41;102103.59;5071300;28;19917;-83
2023/01/03 05:10:11;;;;;;;;;;;;;;;12.76;76.38;102105.00;5072150;28;19917;-96
2023/01/03 05:12:58;;;;;;;;;;;;;;;12.77;76.43;102104.69;5059238;28;19917;-85
2023/01/03 05:15:43;;;;;;;;;;;;;;;12.79;76.16;102102.50;5053324;28;19917;-83
2023/01/03 05:18:29;;;;;;;;;;;;;;;12.77;76.06;102107.44;5057899;28;19917;-86
2023/01/03 05:27:23;;;;;;;;;;;;;;;12.75;76.08;102117.81;5069057;28;19917;-88
2023/01/03 05:30:08;;;;;;;;;;;;;;;12.76;76.07;102116.72;5052726;28;19917;-90
2023/01/03 05:32:53;;;;;;;;;;;;;;;12.77;76.06;102121.06;5059180;28;19921;-84
2023/01/03 05:35:38;;;;;;;;;;;;;;;12.77;75.97;102125.72;5057043;28;19920;-83
2023/01/03 05:38:22;;;;;;;;;;;;;;;12.75;75.95;102131.47;5052201;28;19921;-84
2023/01/03 05:41:07;;;;;;;;;;;;;;;12.75;75.87;102139.66;5052096;28;19917;-87
2023/01/03 05:43:51;;;;;;;;;;;;;;;12.77;75.84;102137.47;5056119;28;19917;-84
2023/01/03 05:46:36;;;;;;;;;;;;;;;12.75;75.99;102141.56;5051921;28;19921;-83
2023/01/03 05:49:20;;;;;;;;;;;;;;;12.77;75.71;102147.56;5052307;28;19921;-83
2023/01/03 05:52:05;;;;;;;;;;;;;;;12.76;75.84;102146.75;5054946;28;20192;-83
2023/01/03 05:54:49;;;;;;;;;;;;;;;12.74;75.89;102138.06;5048476;28;20296;-85
2023/01/03 05:57:33;;;;;;;;;;;;;;;12.75;75.81;102136.13;5054034;28;19917;-84
2023/01/03 06:00:18;;;;;;;;;;;;;;;12.75;75.63;102139.66;5049537;28;19917;-84
2023/01/03 06:03:03;;;;;;;;;;;;;;;12.74;75.78;102138.06;5057541;28;19917;-83
2023/01/03 06:05:48;;;;;;;;;;;;;;;12.74;75.74;102134.50;5073517;28;19921;-86
2023/01/03 06:08:33;;;;;;;;;;;;;;;12.72;75.76;102142.19;5053536;28;19920;-83
2023/01/03 06:11:17;;;;;;;;;;;;;;;12.72;75.82;102144.91;5051308;28;19917;-82
2023/01/03 06:14:02;;;;;;;;;;;;;;;12.71;75.74;102148.72;5064073;28;19917;-82
2023/01/03 06:19:50;;;;;;;;;;;;;;;12.70;75.85;102155.28;5049797;28;19917;-82
2023/01/03 06:22:34;;;;;;;;;;;;;;;12.71;75.82;102163.19;5055850;28;20362;-84
2023/01/03 06:25:19;;;;;;;;;;;;;;;12.69;75.69;102156.41;5053170;28;19921;-84
2023/01/03 06:28:03;;;;;;;;;;;;;;;12.70;75.91;102155.28;5050878;28;19921;-84
2023/01/03 06:30:48;;;;;;;;;;;;;;;12.72;76.18;102159.38;5057414;28;19917;-82
2023/01/03 06:33:32;;;;;;;;;;;;;;;12.69;75.98;102154.50;5059091;28;20227;-82
2023/01/03 06:36:18;;;;;;;;;;;;;;;12.70;75.97;102158.84;5079149;28;19904;-87
2023/01/03 06:39:03;;;;;;;;;;;;;;;12.68;75.85;102150.16;5045896;28;19917;-85
2023/01/03 06:41:47;;;;;;;;;;;;;;;12.68;75.89;102152.88;5057630;28;19925;-85
2023/01/03 06:44:31;;;;;;;;;;;;;;;12.70;75.79;102158.84;5065072;28;19917;-83
2023/01/03 06:53:24;;;;;;;;;;;;;;;12.70;75.79;102158.03;5055077;28;19913;-94
2023/01/03 06:56:09;;;;;;;;;;;;;;;12.69;75.64;102157.25;5064170;28;19929;-90
2023/01/03 06:58:54;;;;;;;;;;;;;;;12.71;75.72;102162.38;5033309;28;19925;-88
2023/01/03 07:01:39;;;;;;;;;;;;;;;12.68;75.63;102161.06;5053784;28;19921;-85
2023/01/03 07:04:24;;;;;;;;;;;;;;;12.66;75.73;102160.53;5066323;28;19917;-88
2023/01/03 07:07:09;;;;;;;;;;;;;;;12.66;75.72;102168.72;5054176;28;19917;-83
2023/01/03 07:09:55;;;;;;;;;;;;;;;12.68;75.80;102168.44;5046467;28;19917;-83
2023/01/03 07:15:44;;;;;;;;;;;;;;;12.69;75.98;102181.81;5058952;28;19917;-88
2023/01/03 07:18:30;;;;;;;;;;;;;;;12.68;75.93;102179.34;5042280;28;22217;-87
2023/01/03 07:21:15;;;;;;;;;;;;;;;12.68;75.90;102171.97;5047749;28;19917;-92
2023/01/03 07:24:01;;;;;;;;;;;;;;;12.72;75.72;102177.66;5057367;28;19917;-85
2023/01/03 07:26:45;;;;;;;;;;;;;;;12.72;75.96;102183.94;5071846;28;19921;-83
2023/01/03 07:29:31;;;;;;;;;;;;;;;12.71;75.98;102184.22;5053960;28;19917;-87
2023/01/03 07:32:16;;;;;;;;;;;;;;;12.69;75.83;102184.53;5065995;28;19917;-87
2023/01/03 07:35:01;;;;;;;;;;;;;;;12.73;75.77;102179.28;5047147;28;19917;-85
2023/01/03 07:37:45;;;;;;;;;;;;;;;12.74;75.80;102186.38;5054070;28;19901;-84
2023/01/03 07:40:30;;;;;;;;;;;;;;;12.67;75.85;102184.00;5054356;28;19918;-86
2023/01/03 07:43:36;;;;;;;;;;;;;;;12.66;75.96;102179.63;5070627;28;19917;-84
2023/01/03 07:46:23;;;;;;;;;;;;;;;12.68;75.89;102177.44;5047722;28;19925;-84
2023/01/03 07:49:08;;;;;;;;;;;;;;;12.67;75.82;102175.81;5045906;28;19917;-84
2023/01/03 07:51:53;;;;;;;;;;;;;;;12.67;75.91;102178.53;5048706;28;19921;-86
2023/01/03 07:54:37;;;;;;;;;;;;;;;12.73;77.07;102188.28;5043328;28;20438;-83
2023/01/03 07:57:22;;;;;;;;;;;;;;;12.73;77.11;102185.56;5050498;28;19917;-84
2023/01/03 08:00:08;;;;;;;;;;;;;;;12.72;76.65;102183.94;5053172;28;19917;-88
2023/01/03 08:02:57;;;;;;;;;;;;;;;12.73;76.49;102173.81;5058455;28;19917;-89
2023/01/03 08:05:42;;;;;;;;;;;;;;;12.72;76.51;102178.47;5055626;28;19921;-83
2023/01/03 08:08:27;;;;;;;;;;;;;;;12.72;76.19;102167.56;5054924;28;19917;-84
2023/01/03 08:14:16;;;;;;;;;;;;;;;12.72;76.17;102181.19;5058691;28;19917;-83
2023/01/03 08:17:03;;;;;;;;;;;;;;;12.73;76.26;102182.03;5054721;28;19917;-85
2023/01/03 08:19:48;;;;;;;;;;;;;;;12.72;76.25;102188.56;5045943;28;19918;-87
2023/01/03 08:22:58;;;;;;;;;;;;;;;12.71;76.44;102198.69;5054645;28;19917;-83
2023/01/03 08:25:42;;;;;;;;;;;;;;;12.68;76.51;102196.53;5058072;28;19925;-85
2023/01/03 08:28:27;;;;;;;;;;;;;;;12.69;76.48;102200.91;5055808;28;19917;-87
2023/01/03 08:31:17;;;;;;;;;;;;;;;12.69;76.62;102195.44;5058923;28;19917;-85
2023/01/03 08:34:03;;;;;;;;;;;;;;;12.71;76.57;102203.31;5053825;28;19917;-87
2023/01/03 08:36:51;;;;;;;;;;;;;;;12.73;76.59;102206.59;5057833;28;19917;-85
2023/01/03 08:39:37;;;;;;;;;;;;;;;12.73;76.54;102207.41;5058125;28;19917;-85
2023/01/03 08:42:23;;;;;;;;;;;;;;;12.75;76.47;102218.81;5052840;28;19928;-90
2023/01/03 08:45:10;;;;;;;;;;;;;;;12.75;76.56;102218.81;5055494;28;19921;-86
2023/01/03 08:47:57;;;;;;;;;;;;;;;12.76;76.65;102227.81;5068135;28;19917;-82
2023/01/03 08:50:42;;;;;;;;;;;;;;;12.76;76.56;102228.63;5057298;28;19917;-89
2023/01/03 08:53:27;;;;;;;;;;;;;;;12.76;76.55;102231.38;5056450;28;19917;-86
2023/01/03 08:56:12;;;;;;;;;;;;;;;12.77;76.63;102229.44;5055048;28;19917;-86
2023/01/03 08:58:57;;;;;;;;;;;;;;;12.79;76.48;102228.06;5062895;22;19929;-80
2023/01/03 09:01:41;;;;;;;;;;;;;;;12.80;76.58;102226.94;5037342;28;19921;-79
2023/01/03 09:04:26;;;;;;;;;;;;;;;12.79;76.56;102225.34;5041636;28;19917;-79
2023/01/03 09:07:11;;;;;;;;;;;;;;;12.82;76.75;102237.56;5038908;28;19925;-81
2023/01/03 09:09:55;;;;;;;;;;;;;;;12.82;76.80;102226.66;5039810;28;19917;-80
2023/01/03 09:12:40;;;;;;;;;;;;;;;12.84;76.70;102240.84;5041566;28;19925;-80
2023/01/03 09:15:24;;;;;;;;;;;;;;;12.84;76.81;102241.66;5041189;28;19921;-80
2023/01/03 09:18:09;;;;;;;;;;;;;;;12.86;76.97;102233.16;5038195;28;19925;-80
2023/01/03 09:20:53;;;;;;;;;;;;;;;12.86;76.97;102225.78;5039625;28;19921;-80
2023/01/03 09:23:38;;;;;;;;;;;;;;;12.89;77.04;102231.75;5040966;28;19917;-80
2023/01/03 09:26:22;;;;;;;;;;;;;;;12.89;76.79;102232.59;5041531;28;19921;-80
2023/01/03 09:29:06;;;;;;;;;;;;;;;12.89;76.90;102232.59;5057490;28;19917;-80
2023/01/03 09:31:51;;;;;;;;;;;;;;;12.90;76.83;102238.84;5059423;28;19917;-80
2023/01/03 09:34:35;;;;;;;;;;;;;;;12.91;76.78;102237.72;5042051;28;19917;-80
2023/01/03 09:37:20;;;;;;;;;;;;;;;12.91;76.55;102235.00;5041945;28;20316;-81
2023/01/03 09:40:05;;;;;;;;;;;;;;;12.90;76.42;102231.44;5041790;28;19936;-80
2023/01/03 09:45:57;;;;;;;;;;;;;;;12.93;76.21;102233.63;5054728;28;20388;-80
2023/01/03 09:48:41;;;;;;;;;;;;;;;12.95;76.14;102236.88;5059966;28;19917;-80
2023/01/03 10:04:04;;;;;;;;;;;;;;;13.03;75.84;102214.34;5046094;28;20397;-80
2023/01/03 10:07:03;;;;;;;;;;;;;;;13.06;75.85;102212.94;5041730;28;20308;-80
2023/01/03 10:09:54;;;;;;;;;;;;;;;13.10;75.72;102208.53;5034400;28;19917;-79
2023/01/03 10:12:52;;;;;;;;;;;;;;;13.10;75.95;102208.53;5039576;28;19925;-79
2023/01/03 10:15:37;;;;;;;;;;;;;;;13.13;75.83;102210.69;5039712;28;19917;-79
2023/01/03 10:18:30;;;;;;;;;;;;;;;13.16;75.84;102207.34;5041234;28;19916;-79
2023/01/03 10:21:15;;;;;;;;;;;;;;;13.16;76.02;102199.16;5032356;28;19925;-79
2023/01/03 10:23:59;;;;;;;;;;;;;;;13.18;75.64;102202.44;5038343;28;19917;-79
2023/01/03 10:26:46;;;;;;;;;;;;;;;13.19;75.80;102202.13;5036060;28;19921;-79
2023/01/03 10:29:31;;;;;;;;;;;;;;;13.22;75.92;102203.44;5045820;28;19917;-79
2023/01/03 10:32:16;;;;;;;;;;;;;;;13.27;76.21;102200.63;5036748;28;19925;-79
2023/01/03 10:35:14;;;;;;;;;;;;;;;13.30;76.40;102193.78;5031884;28;19921;-79
2023/01/03 10:37:59;;;;;;;;;;;;;;;13.33;76.64;102194.00;5039649;28;19917;-78
2023/01/03 10:40:51;;;;;;;;;;;;;;;13.34;76.27;102192.88;5042071;28;19918;-80
2023/01/03 10:43:55;;;;;;;;;;;;;;;13.36;75.95;102195.34;5039431;28;19917;-80
2023/01/03 10:46:48;;;;;;;;;;;;;;;13.35;75.69;102180.03;5036448;28;19929;-78
2023/01/03 10:49:32;;;;;;;;;;;;;;;13.37;75.47;102184.09;5035062;28;19917;-78
2023/01/03 10:52:23;;;;;;;;;;;;;;;13.38;75.37;102177.53;5035871;28;20308;-79
2023/01/03 10:55:12;;;;;;;;;;;;;;;13.40;75.67;102172.59;5035255;28;19917;-79
2023/01/03 10:58:01;;;;;;;;;;;;;;;13.41;75.29;102179.66;5037795;28;20295;-80
2023/01/03 11:00:46;;;;;;;;;;;;;;;13.45;75.62;102174.41;5038419;28;19917;-80
2023/01/03 11:03:30;;;;;;;;;;;;;;;13.48;75.51;102169.16;5039625;28;19921;-79
2023/01/03 11:06:15;;;;;;;;;;;;;;;13.51;75.81;102160.34;5036404;28;19921;-79
2023/01/03 11:09:08;;;;;;;;;;;;;;;13.33;73.46;102163.94;5018609;28;19918;-83
2023/01/03 11:11:58;;;;;;;;;;;;;;;13.96;72.00;102152.44;5019475;28;19917;-83
2023/01/03 11:14:50;;;;;;;;;;;;;;;13.43;72.27;102141.91;5047001;28;19917;-83
2023/01/03 11:17:34;;;;;;;;;;;;;;;13.64;71.99;102145.91;5039414;28;19917;-81
2023/01/03 11:20:19;;;;;;;;;;;;;;;14.03;72.70;102139.16;5040541;28;19917;-82
2023/01/03 11:23:07;;;;;;;;;;;;;;;13.87;70.96;102146.84;5040001;28;19917;-81
2023/01/03 11:26:07;;;;;;;;;;;;;;;13.75;72.33;102151.19;5035987;28;19921;-83
2023/01/03 11:29:10;;;;;;;;;;;;;;;14.47;71.65;102155.81;5053323;28;19917;-82
2023/01/03 11:31:58;;;;;;;;;;;;;;;13.61;71.44;102149.22;5032719;28;19928;-82
2023/01/03 11:34:42;;;;;;;;;;;;;;;12.68;75.89;102141.97;5048278;28;19917;-82
2023/01/03 11:37:27;;;;;;;;;;;;;;;12.36;78.58;102144.56;5032873;28;19916;-80
2023/01/03 11:40:15;;;;;;;;;;;;;;;12.33;79.19;102150.63;5031521;28;19917;-81
2023/01/03 11:43:03;;;;;;;;;;;;;;;12.41;79.30;102148.03;5046982;28;19921;-80
2023/01/03 11:46:15;;;;;;;;;;;;;;;12.63;77.89;102146.69;5042482;28;19921;-82
2023/01/03 11:49:11;;;;;;;;;;;;;;;12.37;78.43;102133.38;5037791;28;19917;-80
2023/01/03 11:51:56;;;;;;;;;;;;;;;12.39;78.02;102135.81;5031561;28;19917;-80
2023/01/03 11:54:40;;;;;;;;;;;;;;;12.08;79.29;102134.56;5035141;28;19921;-81
2023/01/03 11:57:51;;;;;;;;;;;;;;;11.96;79.71;102134.94;5023149;28;19925;-80
2023/01/03 12:00:55;;;;;;;;;;;;;;;11.99;81.11;102131.63;5029762;28;19917;-81
2023/01/03 12:03:51;;;;;;;;;;;;;;;11.88;81.24;102133.69;5032659;28;19925;-81
2023/01/03 12:06:40;;;;;;;;;;;;;;;11.76;81.75;102133.25;5028543;28;19926;-80
2023/01/03 12:09:24;;;;;;;;;;;;;;;11.70;81.95;102134.38;5030711;28;20292;-80
2023/01/03 12:12:28;;;;;;;;;;;;;;;11.71;82.42;102129.72;5033457;28;19917;-80
2023/01/03 12:15:19;;;;;;;;;;;;;;;11.79;81.82;102124.50;5034951;28;19943;-80
2023/01/03 12:18:03;;;;;;;;;;;;;;;11.90;81.07;102117.84;5032213;28;20643;-80
2023/01/03 12:20:53;;;;;;;;;;;;;;;11.86;80.83;102115.97;5026617;28;20300;-80
2023/01/03 12:23:41;;;;;;;;;;;;;;;12.20;80.28;102105.75;5035154;28;19917;-80
2023/01/03 12:26:28;;;;;;;;;;;;;;;11.95;80.33;102101.41;5028962;28;19921;-80
2023/01/03 12:29:23;;;;;;;;;;;;;;;11.93;79.80;102100.09;5026216;28;19917;-80
2023/01/03 12:32:10;;;;;;;;;;;;;;;11.86;80.41;102100.44;5024871;28;19917;-80
2023/01/03 12:35:05;;;;;;;;;;;;;;;11.86;81.05;102100.44;5031105;28;19917;-80
2023/01/03 12:37:50;;;;;;;;;;;;;;;12.18;79.83;102093.53;5034877;28;19920;-81
2023/01/03 12:40:44;;;;;;;;;;;;;;;12.01;79.26;102091.28;5033611;28;20384;-78
2023/01/03 12:43:39;;;;;;;;;;;;;;;12.17;79.42;102094.63;5032330;28;19921;-77
2023/01/03 12:46:28;;;;;;;;;;;;;;;12.38;78.77;102085.91;5027594;28;19940;-77
2023/01/03 12:49:14;;;;;;;;;;;;;;;12.76;77.45;102083.16;5024762;28;19925;-78
2023/01/03 12:51:58;;;;;;;;;;;;;;;12.73;77.18;102086.47;5033284;28;19917;-76
2023/01/03 12:54:51;;;;;;;;;;;;;;;12.81;77.10;102086.63;5025540;28;19917;-76
2023/01/03 12:57:43;;;;;;;;;;;;;;;12.92;76.27;102081.81;5032601;28;19920;-76
2023/01/03 13:00:31;;;;;;;;;;;;;;;12.72;76.61;102082.94;5025839;28;19917;-77
2023/01/03 13:03:21;;;;;;;;;;;;;;;12.50;76.85;102071.78;5031776;28;19924;-76
2023/01/03 13:06:23;;;;;;;;;;;;;;;12.69;76.26;102080.00;5034108;28;19921;-76
2023/01/03 13:09:31;;;;;;;;;;;;;;;12.63;76.85;102078.44;5032614;28;20333;-77
2023/01/03 13:12:18;;;;;;;;;;;;;;;12.63;77.21;102075.72;5032879;28;19917;-77
2023/01/03 13:15:02;;;;;;;;;;;;;;;12.77;76.68;102071.94;5032095;28;19917;-76
2023/01/03 13:17:47;;;;;;;;;;;;;;;12.63;76.93;102068.34;5041508;28;20307;-76
2023/01/03 13:20:34;;;;;;;;;;;;;;;12.88;76.16;102066.31;5044214;28;19917;-76
2023/01/03 13:23:35;;;;;;;;;;;;;;;13.00;75.20;102058.50;5028152;28;19921;-76
2023/01/03 13:26:27;;;;;;;;;;;;;;;12.57;76.76;102058.59;5032807;28;19921;-77
2023/01/03 13:29:43;;;;;;;;;;;;;;;12.32;78.10;102053.50;5029535;28;20304;-76
2023/01/03 13:32:29;;;;;;;;;;;;;;;12.53;77.32;102049.41;5030480;28;20316;-77
2023/01/03 13:35:13;;;;;;;;;;;;;;;12.67;76.92;102047.53;5032641;28;20487;-78
2023/01/03 13:38:08;;;;;;;;;;;;;;;12.66;76.65;102043.19;5033617;28;20296;-78
2023/01/03 13:41:08;;;;;;;;;;;;;;;12.33;77.68;102057.88;5033235;28;20300;-78
2023/01/03 13:43:53;;;;;;;;;;;;;;;12.04;78.76;102054.44;5033274;28;20400;-78
2023/01/03 13:46:38;;;;;;;;;;;;;;;11.93;78.97;102057.31;5032931;28;19921;-78
2023/01/03 13:49:24;;;;;;;;;;;;;;;11.91;79.49;102058.69;5033799;28;19917;-78
2023/01/03 13:52:29;;;;;;;;;;;;;;;11.97;78.92;102057.53;5028076;28;20312;-78
2023/01/03 13:55:32;;;;;;;;;;;;;;;12.29;78.43;102051.38;5035929;28;19917;-77
2023/01/03 13:58:23;;;;;;;;;;;;;;;12.37;77.19;102054.25;5027679;28;19916;-77
2023/01/03 14:01:28;;;;;;;;;;;;;;;12.53;77.07;102054.03;5032595;28;19917;-77
2023/01/03 14:04:22;;;;;;;;;;;;;;;12.53;76.05;102049.41;5033371;28;20392;-77
2023/01/03 14:07:24;;;;;;;;;;;;;;;12.59;75.95;102053.69;5053424;28;19921;-76
2023/01/03 14:10:21;;;;;;;;;;;;;;;12.38;76.90;102057.81;5035881;28;19925;-77
2023/01/03 14:13:08;;;;;;;;;;;;;;;12.40;77.01;102055.56;5035040;28;19917;-76
2023/01/03 14:16:10;;;;;;;;;;;;;;;12.14;77.98;102063.28;5033149;28;19917;-76
2023/01/03 14:19:03;;;;;;;;;;;;;;;12.02;79.54;102059.38;5025656;28;19917;-77
2023/01/03 14:21:54;;;;;;;;;;;;;;;11.98;79.49;102070.06;5031747;28;19917;-76
2023/01/03 14:24:47;;;;;;;;;;;;;;;11.90;79.54;102070.69;5032375;28;19917;-76
2023/01/03 14:27:35;;;;;;;;;;;;;;;11.95;79.50;102068.72;5024324;28;19929;-77
2023/01/03 14:30:21;;;;;;;;;;;;;;;11.93;79.58;102073.66;5030010;28;20300;-76
2023/01/03 14:33:14;;;;;;;;;;;;;;;11.92;79.78;102079.41;5023795;28;19917;-76
2023/01/03 14:36:00;;;;;;;;;;;;;;;12.06;79.30;102076.75;5026924;28;19917;-76
2023/01/03 14:38:49;;;;;;;;;;;;;;;12.12;79.11;102075.59;5026030;28;19920;-77
2023/01/03 14:41:38;;;;;;;;;;;;;;;12.13;79.34;102072.59;5031182;28;19917;-77
2023/01/03 14:44:23;;;;;;;;;;;;;;;12.27;78.92;102078.13;5027399;28;19917;-77
2023/01/03 14:47:13;;;;;;;;;;;;;;;12.29;78.56;102081.38;5032500;28;19921;-77
2023/01/03 14:49:58;;;;;;;;;;;;;;;12.41;78.42;102077.09;5024815;28;19917;-79
2023/01/03 14:52:44;;;;;;;;;;;;;;;12.42;77.73;102069.75;5029329;28;19917;-77
2023/01/03 14:55:30;;;;;;;;;;;;;;;12.29;77.33;102065.03;5031635;28;19917;-77
2023/01/03 14:58:27;;;;;;;;;;;;;;;12.24;77.87;102065.09;5061923;22;19917;-79
2023/01/03 15:01:13;;;;;;;;;;;;;;;12.21;77.88;102057.47;5062600;28;19924;-78
2023/01/03 15:03:58;;;;;;;;;;;;;;;12.15;77.94;102067.63;5066052;28;20388;-77
2023/01/03 15:06:57;;;;;;;;;;;;;;;12.10;78.62;102073.16;5067013;28;20331;-77
2023/01/03 15:09:42;;;;;;;;;;;;;;;12.16;78.59;102076.63;5067849;28;20403;-76
2023/01/03 15:12:27;;;;;;;;;;;;;;;12.09;77.96;102076.19;5069358;28;20541;-76
2023/01/03 15:15:18;;;;;;;;;;;;;;;12.09;78.33;102081.66;5072431;28;19917;-77
2023/01/03 15:18:04;;;;;;;;;;;;;;;11.94;78.77;102077.97;5078964;28;19916;-77
2023/01/03 15:20:50;;;;;;;;;;;;;;;11.94;78.94;102085.34;5067948;28;19916;-77
2023/01/03 15:23:39;;;;;;;;;;;;;;;11.93;78.80;102081.84;5068010;28;19917;-77